Dataw Island, South Carolina
Current Conditions -  °F | °C
As of 9:35 AM on Sunday 21 Dec 2014 (Local Time) from KARW Reporting Station
Overcast Overcast  
Wind Chill: 41°   Ceiling: 600
Heat Index: 46°   Visibility: 7mi
Dew Point: 46°   Wind: 13mph
Humidity: 100%   Direction: 40°NE
Pressure: 30.21"   Gusts: NA
Location:  32.3871°N, 80.5485°W
Report Text: KARW 211435Z AUTO 04011KT 7SM OVC006 08/08 A3021 RMK AO2
Loading
Personal Weather Stations






























Interactive Weather Map New forecast layout! Learn more

10-Day Weather Forecast

Advertisements
Track Severe Weather on mobile